createdAt,value
2019-04-26T00:00:28.427Z,0.00
2019-04-26T00:01:28.430Z,0.00
2019-04-26T00:02:28.409Z,0.00
2019-04-26T00:03:28.426Z,0.00
2019-04-26T00:04:28.409Z,0.00
2019-04-26T00:05:34.453Z,0.00
2019-04-26T00:06:29.366Z,0.00
2019-04-26T00:07:28.352Z,0.00
2019-04-26T00:08:28.334Z,0.00
2019-04-26T00:09:28.377Z,0.00
2019-04-26T00:10:28.316Z,0.00
2019-04-26T00:11:28.306Z,0.00
2019-04-26T00:12:28.297Z,0.00
2019-04-26T00:13:28.299Z,0.00
2019-04-26T00:14:28.311Z,0.00
2019-04-26T00:15:28.312Z,0.00
2019-04-26T00:16:28.251Z,0.00
2019-04-26T00:17:28.252Z,0.00
2019-04-26T00:18:28.238Z,0.00
2019-04-26T00:19:28.245Z,0.00
2019-04-26T00:20:28.216Z,0.00
2019-04-26T00:21:28.194Z,0.00
2019-04-26T00:22:28.187Z,0.00
2019-04-26T00:23:28.171Z,0.00
2019-04-26T00:24:28.546Z,0.00
2019-04-26T00:25:28.185Z,0.00
2019-04-26T00:26:28.142Z,0.00
2019-04-26T00:27:28.121Z,0.00
2019-04-26T00:28:28.119Z,0.00
2019-04-26T00:29:28.100Z,0.00
2019-04-26T00:30:28.110Z,0.00
2019-04-26T00:31:28.072Z,0.00
2019-04-26T00:32:28.061Z,0.00
2019-04-26T00:33:28.058Z,0.00
2019-04-26T00:34:28.052Z,0.00
2019-04-26T00:35:28.052Z,0.00
2019-04-26T00:36:28.018Z,0.00
2019-04-26T00:37:28.008Z,0.00
2019-04-26T00:38:27.994Z,0.00
2019-04-26T00:39:27.989Z,0.00
2019-04-26T00:40:27.996Z,0.00
2019-04-26T00:41:27.976Z,0.00
2019-04-26T00:42:27.950Z,0.00
2019-04-26T00:43:27.942Z,0.00
2019-04-26T00:44:27.999Z,0.00
2019-04-26T00:45:27.944Z,0.00
2019-04-26T00:46:27.916Z,0.00
2019-04-26T00:47:27.892Z,0.00
2019-04-26T00:48:27.883Z,0.00
2019-04-26T00:49:27.894Z,0.00
2019-04-26T00:50:27.880Z,0.00
2019-04-26T00:51:27.848Z,0.00
2019-04-26T00:52:27.845Z,0.00
2019-04-26T00:53:27.830Z,0.00
2019-04-26T00:54:27.824Z,0.00
2019-04-26T00:55:27.834Z,0.00
2019-04-26T00:56:27.811Z,0.00
2019-04-26T00:57:27.786Z,0.00
2019-04-26T00:58:27.778Z,0.00
2019-04-26T00:59:27.759Z,0.00
2019-04-26T01:00:27.803Z,0.00
2019-04-26T01:01:27.736Z,0.00
2019-04-26T01:02:27.746Z,0.00
2019-04-26T01:03:27.720Z,0.00
2019-04-26T01:04:27.726Z,0.00
2019-04-26T01:05:27.726Z,0.00
2019-04-26T01:06:27.684Z,0.00
2019-04-26T01:07:27.681Z,0.00
2019-04-26T01:08:27.656Z,0.00
2019-04-26T01:09:27.648Z,0.00
2019-04-26T01:10:27.702Z,0.00
2019-04-26T01:11:27.623Z,0.00
2019-04-26T01:12:27.613Z,0.00
2019-04-26T01:13:27.615Z,0.00
2019-04-26T01:14:27.592Z,0.00
2019-04-26T01:15:27.597Z,0.00
2019-04-26T01:16:27.568Z,0.00
2019-04-26T01:17:27.554Z,0.00
2019-04-26T01:18:27.549Z,0.00
2019-04-26T01:19:27.534Z,0.00
2019-04-26T01:20:27.539Z,0.00
2019-04-26T01:21:27.531Z,0.00
2019-04-26T01:22:27.650Z,0.00
2019-04-26T01:23:27.486Z,0.00
2019-04-26T01:24:27.494Z,0.00
2019-04-26T01:25:27.498Z,0.00
2019-04-26T01:26:27.488Z,0.00
2019-04-26T01:27:27.737Z,0.00
2019-04-26T01:28:27.941Z,0.00
2019-04-26T01:29:27.987Z,0.00
2019-04-26T01:30:27.946Z,0.00
2019-04-26T01:31:28.175Z,0.00
2019-04-26T01:32:28.284Z,0.00
2019-04-26T01:33:28.194Z,0.00
2019-04-26T01:34:28.251Z,0.00
2019-04-26T01:35:28.367Z,0.00
2019-04-26T07:10:38.674Z,6248.00
2019-04-26T07:11:38.646Z,6496.00
2019-04-26T07:12:38.630Z,6848.00
2019-04-26T07:13:38.624Z,7128.00
2019-04-26T07:14:38.611Z,7368.00
2019-04-26T07:15:38.700Z,7472.00
2019-04-26T07:16:38.593Z,7544.00
2019-04-26T07:17:38.569Z,7600.00
2019-04-26T07:18:38.556Z,6456.00
2019-04-26T07:19:38.549Z,7280.00
2019-04-26T07:20:38.562Z,6768.00
2019-04-26T07:21:38.527Z,6924.00
2019-04-26T07:22:38.521Z,6596.00
2019-04-26T07:23:38.499Z,6680.00
2019-04-26T07:24:38.492Z,6796.00
2019-04-26T07:25:38.545Z,6880.00
2019-04-26T07:26:38.469Z,6788.00
2019-04-26T07:27:38.494Z,7188.00
2019-04-26T07:28:38.493Z,6876.00
2019-04-26T07:29:38.434Z,6476.00
2019-04-26T07:30:38.419Z,6380.00
2019-04-26T07:31:38.449Z,6168.00
2019-04-26T07:32:38.406Z,6496.00
2019-04-26T07:33:38.395Z,5828.00
2019-04-26T07:34:38.378Z,5776.00
2019-04-26T07:35:38.362Z,5764.00
2019-04-26T07:36:38.354Z,6184.00
2019-04-26T07:37:38.361Z,5860.00
2019-04-26T07:38:38.334Z,6740.00
2019-04-26T07:39:38.334Z,5132.00
2019-04-26T07:40:38.307Z,4952.00
2019-04-26T07:41:38.354Z,4788.00
2019-04-26T07:42:38.308Z,4632.00
2019-04-26T07:43:38.277Z,4732.00
2019-04-26T07:44:38.270Z,4928.00
2019-04-26T07:45:38.269Z,5668.00
2019-04-26T07:46:38.279Z,6824.00
2019-04-26T07:47:38.232Z,6912.00
2019-04-26T07:48:38.228Z,6864.00
2019-04-26T07:49:38.209Z,6260.00
2019-04-26T07:50:38.211Z,4716.00
2019-04-26T07:51:38.218Z,4564.00
2019-04-26T07:52:38.172Z,4772.00
2019-04-26T07:53:38.170Z,4708.00
2019-04-26T07:54:38.155Z,5584.00
2019-04-26T07:55:38.160Z,5656.00
2019-04-26T07:56:38.161Z,6512.00
2019-04-26T07:57:38.118Z,7440.00
2019-04-26T07:58:38.113Z,8684.00
2019-04-26T07:59:38.112Z,8812.00
2019-04-26T08:00:44.771Z,9312.00
2019-04-26T08:01:39.097Z,9388.00
2019-04-26T08:02:38.066Z,8688.00
2019-04-26T08:03:38.055Z,7780.00
2019-04-26T08:04:38.039Z,7764.00
2019-04-26T08:05:38.044Z,8760.00
2019-04-26T08:06:38.055Z,8400.00
2019-04-26T08:07:38.021Z,7880.00
2019-04-26T08:08:38.049Z,8044.00
2019-04-26T08:09:37.984Z,7936.00
2019-04-26T08:10:37.970Z,9148.00
2019-04-26T08:11:37.992Z,9296.00
2019-04-26T08:12:37.956Z,9508.00
2019-04-26T08:13:37.950Z,9788.00
2019-04-26T08:14:37.929Z,11008.00
2019-04-26T08:15:37.916Z,10340.00
2019-04-26T08:16:37.949Z,11388.00
2019-04-26T08:17:37.894Z,11252.00
2019-04-26T08:18:37.895Z,12008.00
2019-04-26T08:19:37.866Z,11060.00
2019-04-26T08:20:37.856Z,11012.00
2019-04-26T08:21:37.865Z,10900.00
2019-04-26T08:22:37.841Z,10760.00
2019-04-26T08:23:41.330Z,10780.00
2019-04-26T08:24:37.822Z,11384.00
2019-04-26T08:25:37.808Z,11044.00
2019-04-26T08:26:37.804Z,10864.00
2019-04-26T08:27:37.777Z,10460.00
2019-04-26T08:28:37.783Z,10112.00
2019-04-26T08:29:37.764Z,10056.00
2019-04-26T08:30:40.671Z,10604.00
2019-04-26T08:31:38.764Z,9652.00
2019-04-26T08:32:37.723Z,10132.00
2019-04-26T08:33:40.464Z,9780.00
2019-04-26T08:34:38.702Z,10528.00
2019-04-26T08:35:37.704Z,10440.00
2019-04-26T08:36:37.706Z,11444.00
2019-04-26T08:37:37.996Z,11732.00
2019-04-26T08:38:37.656Z,11868.00
2019-04-26T08:39:45.658Z,11616.00
2019-04-26T08:40:38.643Z,11352.00
2019-04-26T08:41:39.154Z,12104.00
2019-04-26T08:42:37.614Z,10840.00
2019-04-26T08:43:37.604Z,10876.00
2019-04-26T08:44:37.588Z,10772.00
2019-04-26T08:45:37.592Z,10836.00
2019-04-26T08:46:37.587Z,10640.00
2019-04-26T08:47:37.580Z,10272.00
2019-04-26T08:48:37.551Z,10088.00
2019-04-26T08:49:39.202Z,9960.00
2019-04-26T08:50:37.526Z,10228.00
2019-04-26T08:51:37.537Z,10220.00
2019-04-26T08:52:37.520Z,10788.00
2019-04-26T08:53:37.504Z,10380.00
2019-04-26T08:54:37.475Z,8688.00
2019-04-26T08:55:37.475Z,8320.00
2019-04-26T08:56:37.676Z,8108.00
2019-04-26T08:57:37.441Z,7840.00
2019-04-26T08:58:37.440Z,7760.00
2019-04-26T08:59:37.438Z,8080.00
2019-04-26T09:00:37.410Z,7232.00
2019-04-26T09:01:37.417Z,7188.00
2019-04-26T09:02:37.397Z,6912.00
2019-04-26T09:03:37.391Z,6956.00
2019-04-26T09:04:37.376Z,7156.00
2019-04-26T09:05:37.349Z,7296.00
2019-04-26T09:06:37.365Z,7576.00
2019-04-26T09:07:37.330Z,7948.00
2019-04-26T09:08:39.225Z,8456.00
2019-04-26T09:09:38.490Z,9068.00
2019-04-26T09:10:39.342Z,9376.00
2019-04-26T09:11:38.360Z,9624.00
2019-04-26T09:12:37.385Z,9924.00
2019-04-26T09:13:37.267Z,10192.00
2019-04-26T09:14:37.253Z,9428.00
2019-04-26T09:15:37.248Z,9084.00
2019-04-26T09:16:49.583Z,8732.00
2019-04-26T09:17:38.390Z,8188.00
2019-04-26T09:18:43.730Z,7648.00
2019-04-26T09:19:38.209Z,7324.00
2019-04-26T09:20:38.510Z,7140.00
2019-04-26T09:21:38.203Z,7044.00
2019-04-26T09:22:37.164Z,7028.00
2019-04-26T09:23:40.259Z,7060.00
2019-04-26T09:24:37.160Z,7188.00
2019-04-26T09:25:39.271Z,7304.00
2019-04-26T09:26:37.145Z,7396.00
2019-04-26T09:27:37.119Z,7544.00
2019-04-26T09:28:37.362Z,7644.00
2019-04-26T09:29:37.106Z,7956.00
2019-04-26T09:30:38.545Z,8400.00
2019-04-26T09:31:37.086Z,8912.00
2019-04-26T09:32:37.053Z,9300.00
2019-04-26T09:33:37.464Z,9520.00
2019-04-26T09:34:41.315Z,9732.00
2019-04-26T09:35:38.032Z,10020.00
2019-04-26T09:36:37.041Z,10104.00
2019-04-26T09:37:36.997Z,10156.00
2019-04-26T09:38:36.996Z,10492.00
2019-04-26T09:39:41.601Z,10936.00
2019-04-26T09:40:37.967Z,11500.00
2019-04-26T09:41:36.970Z,11988.00
2019-04-26T09:42:39.265Z,12144.00
2019-04-26T09:43:36.926Z,11984.00
2019-04-26T09:44:37.614Z,12516.00
2019-04-26T09:45:36.904Z,11400.00
2019-04-26T09:46:36.906Z,11512.00
2019-04-26T09:47:36.883Z,11988.00
2019-04-26T09:48:36.915Z,12756.00
2019-04-26T09:49:37.334Z,13232.00
2019-04-26T09:50:36.853Z,13140.00
2019-04-26T09:51:39.062Z,12936.00
2019-04-26T09:52:36.850Z,12264.00
2019-04-26T09:53:39.581Z,11496.00
2019-04-26T09:54:37.806Z,11200.00
2019-04-26T09:55:36.808Z,11060.00
2019-04-26T09:56:36.803Z,10820.00
2019-04-26T09:57:36.782Z,10164.00
2019-04-26T09:58:36.772Z,9632.00
2019-04-26T09:59:40.085Z,8884.00
2019-04-26T10:00:36.738Z,8672.00
2019-04-26T10:01:36.747Z,8616.00
2019-04-26T10:02:36.715Z,8840.00
2019-04-26T10:03:36.702Z,8992.00
2019-04-26T10:04:36.705Z,9196.00
2019-04-26T10:05:36.685Z,10512.00
2019-04-26T10:06:36.692Z,9168.00
2019-04-26T10:07:37.513Z,9236.00
2019-04-26T10:08:36.656Z,9444.00
2019-04-26T10:09:36.634Z,9780.00
2019-04-26T10:10:36.622Z,10424.00
2019-04-26T10:11:39.614Z,11260.00
2019-04-26T10:12:36.603Z,11904.00
2019-04-26T10:13:36.626Z,12424.00
2019-04-26T10:14:36.639Z,13680.00
2019-04-26T10:15:38.950Z,16276.00
2019-04-26T10:16:37.715Z,17056.00
2019-04-26T10:17:36.596Z,17024.00
2019-04-26T10:18:36.535Z,21312.00
2019-04-26T10:19:36.517Z,20224.00
2019-04-26T10:20:36.512Z,61792.00
2019-04-26T10:21:36.575Z,18656.00
2019-04-26T10:22:36.489Z,16032.00
2019-04-26T10:23:36.480Z,20000.00
2019-04-26T10:24:36.470Z,47392.00
2019-04-26T10:25:36.462Z,82592.00
2019-04-26T10:26:36.461Z,71808.00
2019-04-26T10:27:40.781Z,56512.00
2019-04-26T10:28:36.443Z,86976.00
2019-04-26T10:29:36.437Z,98272.00
2019-04-26T10:30:38.453Z,101952.00
2019-04-26T10:31:37.407Z,103840.00
2019-04-26T10:32:36.412Z,103680.00
2019-04-26T10:33:36.751Z,103776.00
2019-04-26T10:34:37.177Z,105248.00
2019-04-26T10:35:36.352Z,103360.00
2019-04-26T10:36:36.414Z,102976.00
2019-04-26T10:37:39.711Z,101920.00
2019-04-26T10:38:36.310Z,99648.00
2019-04-26T10:39:37.040Z,95072.00
2019-04-26T10:40:36.294Z,97504.00
2019-04-26T10:41:36.312Z,98432.00
2019-04-26T10:42:36.306Z,106848.00
2019-04-26T10:43:36.262Z,111712.00
2019-04-26T10:44:39.950Z,107968.00
2019-04-26T10:45:36.243Z,108448.00
2019-04-26T10:46:36.275Z,104896.00
2019-04-26T10:47:38.384Z,111808.00
2019-04-26T10:48:36.227Z,112704.00
2019-04-26T10:49:36.200Z,126880.00
2019-04-26T10:50:36.195Z,136800.00
2019-04-26T10:51:38.712Z,138336.00
2019-04-26T10:52:37.169Z,141888.00
2019-04-26T10:53:36.183Z,134688.00
2019-04-26T10:54:36.891Z,145632.00
2019-04-26T10:55:36.142Z,148512.00
2019-04-26T10:56:36.154Z,149952.00
2019-04-26T10:57:36.122Z,147392.00
2019-04-26T10:58:37.647Z,151008.00
2019-04-26T10:59:39.988Z,147136.00
2019-04-26T11:00:37.093Z,149760.00
2019-04-26T11:01:36.101Z,147680.00
2019-04-26T11:02:36.079Z,139808.00
2019-04-26T11:03:36.080Z,141504.00
2019-04-26T11:04:37.369Z,138176.00
2019-04-26T11:05:36.073Z,140352.00
2019-04-26T11:06:36.088Z,142016.00
2019-04-26T11:07:36.042Z,149792.00
2019-04-26T11:08:36.020Z,143264.00
2019-04-26T11:09:36.020Z,143424.00
2019-04-26T11:10:47.910Z,144064.00
2019-04-26T11:11:37.068Z,146144.00
2019-04-26T11:12:36.000Z,146144.00
2019-04-26T11:13:36.002Z,147072.00
2019-04-26T11:14:35.982Z,136064.00
2019-04-26T11:15:35.971Z,137792.00
2019-04-26T11:16:37.192Z,135168.00
2019-04-26T11:17:35.963Z,132096.00
2019-04-26T11:18:35.942Z,135296.00
2019-04-26T11:19:36.635Z,135584.00
2019-04-26T11:20:35.932Z,137088.00
2019-04-26T11:21:36.077Z,136800.00
2019-04-26T11:22:37.576Z,132032.00
2019-04-26T11:23:35.902Z,136896.00
2019-04-26T11:24:35.886Z,133760.00
2019-04-26T11:25:35.888Z,130016.00
2019-04-26T11:26:36.229Z,128544.00
2019-04-26T11:27:35.865Z,122496.00
2019-04-26T11:28:35.868Z,124992.00
2019-04-26T11:29:35.853Z,124192.00
2019-04-26T11:30:35.855Z,113216.00
2019-04-26T11:31:35.865Z,96160.00
2019-04-26T11:32:36.751Z,92064.00
2019-04-26T11:33:44.753Z,137984.00
2019-04-26T11:34:36.809Z,135648.00
2019-04-26T11:35:35.917Z,139520.00
2019-04-26T11:36:37.563Z,138368.00
2019-04-26T11:37:36.789Z,136224.00
2019-04-26T11:38:35.800Z,133440.00
2019-04-26T11:39:36.542Z,120576.00
2019-04-26T11:40:35.802Z,115296.00
2019-04-26T11:41:37.632Z,129952.00
2019-04-26T11:42:35.756Z,131648.00
2019-04-26T11:43:35.741Z,130432.00
2019-04-26T11:44:35.733Z,120832.00
2019-04-26T11:45:35.721Z,117376.00
2019-04-26T11:46:44.654Z,103520.00
2019-04-26T11:47:37.202Z,70464.00
2019-04-26T11:48:36.713Z,90464.00
2019-04-26T11:49:37.281Z,90112.00
2019-04-26T11:50:36.681Z,106368.00
2019-04-26T11:51:35.707Z,92992.00
2019-04-26T11:52:37.222Z,71008.00
2019-04-26T11:53:35.652Z,42624.00
2019-04-26T11:54:35.641Z,46176.00
2019-04-26T11:55:35.644Z,42944.00
2019-04-26T11:56:37.601Z,32416.00
2019-04-26T11:57:35.622Z,21632.00
2019-04-26T11:58:35.613Z,23712.00
2019-04-26T11:59:35.603Z,36800.00
2019-04-26T12:00:35.592Z,30944.00
2019-04-26T12:01:36.666Z,24992.00
2019-04-26T12:02:35.686Z,19648.00
2019-04-26T12:03:35.560Z,23584.00
2019-04-26T12:04:35.554Z,16576.00
2019-04-26T12:05:35.541Z,16288.00
2019-04-26T12:06:35.556Z,21088.00
2019-04-26T12:07:35.525Z,19040.00
2019-04-26T12:08:35.519Z,26144.00
2019-04-26T12:09:35.502Z,23520.00
2019-04-26T12:10:35.495Z,18624.00
2019-04-26T12:11:35.507Z,17600.00
2019-04-26T12:12:35.471Z,16480.00
2019-04-26T12:13:35.488Z,16704.00
2019-04-26T12:14:35.478Z,14864.00
2019-04-26T12:15:39.121Z,14720.00
2019-04-26T12:16:47.048Z,14052.00
2019-04-26T12:17:36.766Z,13636.00
2019-04-26T12:18:35.423Z,13324.00
2019-04-26T12:19:35.405Z,14424.00
2019-04-26T12:20:35.416Z,14244.00
2019-04-26T12:21:35.381Z,13396.00
2019-04-26T12:22:35.417Z,11964.00
2019-04-26T12:23:35.363Z,11284.00
2019-04-26T12:24:35.348Z,10868.00
2019-04-26T12:25:38.781Z,11072.00
2019-04-26T12:26:42.558Z,11232.00
2019-04-26T12:27:36.521Z,11580.00
2019-04-26T12:28:36.352Z,11120.00
2019-04-26T12:29:35.295Z,11276.00
2019-04-26T12:30:35.302Z,10700.00
2019-04-26T12:31:35.277Z,10092.00
2019-04-26T12:32:35.274Z,10844.00
2019-04-26T12:33:39.186Z,11184.00
2019-04-26T12:34:36.252Z,12024.00
2019-04-26T12:35:35.251Z,12196.00
2019-04-26T12:36:35.233Z,12804.00
2019-04-26T12:37:35.240Z,11264.00
2019-04-26T12:38:35.194Z,12636.00
2019-04-26T12:39:36.771Z,10092.00
2019-04-26T12:40:35.176Z,11836.00
2019-04-26T12:41:40.315Z,13752.00
2019-04-26T12:42:36.173Z,10968.00
2019-04-26T12:43:35.150Z,20128.00
2019-04-26T12:44:36.448Z,26080.00
2019-04-26T12:45:35.122Z,29472.00
2019-04-26T12:46:35.128Z,38816.00
2019-04-26T12:47:38.603Z,25536.00
2019-04-26T12:48:35.126Z,15712.00
2019-04-26T12:49:35.467Z,13272.00
2019-04-26T12:50:37.650Z,11916.00
2019-04-26T12:51:35.063Z,13224.00
2019-04-26T12:52:37.380Z,9908.00
2019-04-26T12:53:35.037Z,12248.00
2019-04-26T12:54:35.031Z,17568.00
2019-04-26T12:55:35.021Z,12288.00
2019-04-26T12:56:35.002Z,20416.00
2019-04-26T12:57:36.434Z,31072.00
2019-04-26T12:58:36.080Z,32512.00
2019-04-26T12:59:43.925Z,30208.00
2019-04-26T13:00:37.438Z,27296.00
2019-04-26T13:01:35.013Z,32096.00
2019-04-26T13:02:34.976Z,17888.00
2019-04-26T13:03:34.928Z,18080.00
2019-04-26T13:04:36.211Z,18688.00
2019-04-26T13:05:34.922Z,15872.00
2019-04-26T13:06:34.919Z,15776.00
2019-04-26T13:07:34.974Z,14664.00
2019-04-26T13:08:34.875Z,13260.00
2019-04-26T13:09:34.866Z,12300.00
2019-04-26T13:10:35.448Z,12140.00
2019-04-26T13:11:34.905Z,11816.00
2019-04-26T13:12:35.773Z,11688.00
2019-04-26T13:13:34.839Z,11848.00
2019-04-26T13:14:34.816Z,10396.00
2019-04-26T13:15:36.234Z,9856.00
2019-04-26T13:16:36.675Z,9316.00
2019-04-26T13:17:35.735Z,9596.00
2019-04-26T13:18:34.805Z,10148.00
2019-04-26T13:19:35.714Z,10360.00
2019-04-26T13:20:34.747Z,11660.00
2019-04-26T13:21:37.393Z,10560.00
2019-04-26T13:22:45.261Z,9484.00
2019-04-26T13:23:35.757Z,9576.00
2019-04-26T13:24:35.515Z,9744.00
2019-04-26T13:25:40.565Z,9308.00
2019-04-26T13:26:36.438Z,11696.00
2019-04-26T13:27:34.671Z,13708.00
2019-04-26T13:28:34.679Z,14556.00
2019-04-26T13:29:34.649Z,12704.00
2019-04-26T13:30:34.642Z,12112.00
2019-04-26T13:31:34.626Z,11028.00
2019-04-26T13:32:34.619Z,9936.00
2019-04-26T13:33:37.897Z,9532.00
2019-04-26T13:34:37.203Z,9320.00
2019-04-26T13:35:34.585Z,9076.00
2019-04-26T13:36:34.587Z,8944.00
2019-04-26T13:37:35.682Z,9092.00
2019-04-26T13:38:34.553Z,9380.00
2019-04-26T13:39:34.542Z,10700.00
2019-04-26T13:40:34.533Z,11396.00
2019-04-26T13:41:34.936Z,13080.00
2019-04-26T13:42:34.511Z,19040.00
2019-04-26T13:43:34.531Z,21696.00
2019-04-26T13:44:35.687Z,25664.00
2019-04-26T13:45:34.475Z,22752.00
2019-04-26T13:46:34.476Z,12632.00
2019-04-26T13:47:34.460Z,26976.00
2019-04-26T13:48:34.470Z,29376.00
2019-04-26T13:49:34.435Z,24768.00
2019-04-26T13:50:34.418Z,34816.00
2019-04-26T13:51:34.423Z,47008.00
2019-04-26T13:52:34.408Z,44512.00
2019-04-26T13:53:34.406Z,47840.00
2019-04-26T13:54:34.384Z,51200.00
2019-04-26T13:55:34.368Z,49920.00
2019-04-26T13:56:35.948Z,35456.00
2019-04-26T13:57:34.345Z,19456.00
2019-04-26T13:58:34.460Z,21312.00
2019-04-26T13:59:34.323Z,17792.00
2019-04-26T14:00:34.316Z,13204.00
2019-04-26T14:01:34.303Z,16032.00
2019-04-26T14:02:34.303Z,12652.00
2019-04-26T14:03:34.279Z,11696.00
2019-04-26T14:04:37.186Z,13824.00
2019-04-26T14:05:35.285Z,9736.00
2019-04-26T14:06:34.257Z,9916.00
2019-04-26T14:07:34.237Z,9680.00
2019-04-26T14:08:34.225Z,9500.00
2019-04-26T14:09:34.248Z,9544.00
2019-04-26T14:10:34.204Z,9616.00
2019-04-26T14:11:34.202Z,9200.00
2019-04-26T14:12:34.197Z,9016.00
2019-04-26T14:13:34.183Z,9000.00
2019-04-26T14:14:35.233Z,8616.00
2019-04-26T14:15:34.151Z,9256.00
2019-04-26T14:16:34.146Z,8728.00
2019-04-26T14:17:34.135Z,8268.00
2019-04-26T14:18:34.602Z,7688.00
2019-04-26T14:19:34.158Z,7252.00
2019-04-26T14:20:34.098Z,7404.00
2019-04-26T14:21:34.809Z,7040.00
2019-04-26T14:22:36.966Z,7948.00
2019-04-26T14:23:35.062Z,8512.00
2019-04-26T14:24:34.087Z,8668.00
2019-04-26T14:25:34.040Z,7008.00
2019-04-26T14:26:35.348Z,6036.00
2019-04-26T14:27:35.025Z,6192.00
2019-04-26T14:28:34.008Z,6184.00
2019-04-26T14:29:34.039Z,6316.00
2019-04-26T14:30:37.460Z,6112.00
2019-04-26T14:31:34.978Z,6340.00
2019-04-26T14:32:33.967Z,6384.00
2019-04-26T14:33:33.956Z,6960.00
2019-04-26T14:34:36.141Z,7272.00
2019-04-26T14:35:34.966Z,5296.00
2019-04-26T14:36:33.920Z,5144.00
2019-04-26T14:37:33.913Z,4860.00
2019-04-26T14:38:39.331Z,4512.00
2019-04-26T14:39:49.204Z,4224.00
2019-04-26T14:40:34.950Z,4096.00
2019-04-26T14:41:34.005Z,3924.00
2019-04-26T14:42:38.127Z,3612.00
2019-04-26T14:43:40.861Z,4064.00
2019-04-26T14:44:34.837Z,4508.00
2019-04-26T14:45:36.416Z,4892.00
2019-04-26T14:46:33.819Z,5108.00
2019-04-26T14:47:46.500Z,5088.00
2019-04-26T14:48:36.160Z,4716.00
2019-04-26T14:49:39.168Z,5308.00
2019-04-26T14:50:34.791Z,4424.00
2019-04-26T14:51:33.753Z,4604.00
2019-04-26T14:52:33.749Z,4444.00
2019-04-26T14:53:36.446Z,3804.00
2019-04-26T14:54:33.724Z,4140.00
2019-04-26T14:55:33.832Z,4864.00
2019-04-26T14:56:33.711Z,6568.00
2019-04-26T14:57:34.026Z,12944.00
2019-04-26T14:58:33.778Z,14240.00
2019-04-26T14:59:33.666Z,7336.00
2019-04-26T15:00:33.994Z,8016.00
2019-04-26T15:01:35.218Z,5072.00
2019-04-26T15:02:33.631Z,4968.00
2019-04-26T15:03:34.074Z,4900.00
2019-04-26T15:04:33.611Z,5088.00
2019-04-26T15:05:33.616Z,5012.00
2019-04-26T15:06:33.591Z,4644.00
2019-04-26T15:07:35.053Z,4628.00
2019-04-26T15:08:34.572Z,4456.00
2019-04-26T15:09:36.401Z,4260.00
2019-04-26T15:10:43.427Z,4224.00
2019-04-26T15:11:36.124Z,4288.00
2019-04-26T15:12:45.682Z,4508.00
2019-04-26T15:13:40.265Z,4600.00
2019-04-26T15:14:34.528Z,4480.00
2019-04-26T15:15:34.662Z,4404.00
2019-04-26T15:16:33.477Z,4360.00
2019-04-26T15:17:33.479Z,4328.00
2019-04-26T15:18:36.963Z,4192.00
2019-04-26T15:19:35.219Z,4484.00
2019-04-26T15:20:33.468Z,4000.00
2019-04-26T15:21:34.414Z,3964.00
2019-04-26T15:22:33.408Z,4044.00
2019-04-26T15:23:33.402Z,3848.00
2019-04-26T15:24:35.061Z,3420.00
2019-04-26T15:25:36.702Z,3120.00
2019-04-26T15:26:33.370Z,2820.00
2019-04-26T15:27:36.180Z,2668.00
2019-04-26T15:28:33.345Z,2488.00
2019-04-26T15:29:33.327Z,2408.00
2019-04-26T15:30:41.576Z,2452.00
2019-04-26T15:31:34.324Z,2736.00
2019-04-26T15:32:35.255Z,2700.00
2019-04-26T15:33:35.783Z,2648.00
2019-04-26T15:34:33.272Z,2888.00
2019-04-26T15:35:35.812Z,3132.00
2019-04-26T15:36:33.261Z,4320.00
2019-04-26T15:37:33.244Z,6748.00
2019-04-26T15:38:41.179Z,5912.00
2019-04-26T15:39:34.240Z,7552.00
2019-04-26T15:40:35.087Z,13096.00
2019-04-26T15:41:33.333Z,14012.00
2019-04-26T15:42:33.187Z,12448.00
2019-04-26T15:43:33.180Z,7184.00
2019-04-26T15:44:33.177Z,4112.00
2019-04-26T15:45:38.694Z,3884.00
2019-04-26T15:46:34.139Z,3920.00
2019-04-26T15:47:34.307Z,4292.00
2019-04-26T15:48:33.122Z,4768.00
2019-04-26T15:49:36.559Z,6852.00
2019-04-26T15:50:33.122Z,4008.00
2019-04-26T15:51:33.096Z,3904.00
2019-04-26T15:52:34.128Z,3752.00
2019-04-26T15:53:33.261Z,4008.00
2019-04-26T15:54:33.067Z,5504.00
2019-04-26T15:55:39.668Z,3272.00
2019-04-26T15:56:34.031Z,3204.00
2019-04-26T15:57:34.709Z,4912.00
2019-04-26T15:58:33.011Z,8908.00
2019-04-26T15:59:33.005Z,10464.00
2019-04-26T16:00:35.471Z,11972.00
2019-04-26T16:01:32.976Z,10012.00
2019-04-26T16:02:32.963Z,6296.00
2019-04-26T16:03:32.951Z,3736.00
2019-04-26T16:04:32.950Z,3268.00
2019-04-26T16:05:32.955Z,3032.00
2019-04-26T16:06:32.935Z,2976.00
2019-04-26T16:07:34.419Z,2972.00
2019-04-26T16:08:33.992Z,3000.00
2019-04-26T16:09:33.883Z,2976.00
2019-04-26T16:10:36.796Z,2984.00
2019-04-26T16:11:33.865Z,3056.00
2019-04-26T16:12:32.857Z,3100.00
2019-04-26T16:13:32.847Z,3096.00
2019-04-26T16:14:36.503Z,3016.00
2019-04-26T16:15:32.835Z,2932.00
2019-04-26T16:16:34.549Z,2760.00
2019-04-26T16:17:36.167Z,2556.00
2019-04-26T16:18:33.789Z,2344.00
2019-04-26T16:19:32.791Z,2244.00
2019-04-26T16:20:37.538Z,2148.00
2019-04-26T16:21:33.748Z,2048.00
2019-04-26T16:22:33.201Z,2096.00
2019-04-26T16:23:41.012Z,1980.00
2019-04-26T16:24:34.513Z,1908.00
2019-04-26T16:25:34.338Z,1860.00
2019-04-26T16:26:33.695Z,1848.00
2019-04-26T16:27:34.568Z,1824.00
2019-04-26T16:28:33.319Z,1816.00
2019-04-26T16:29:32.668Z,1812.00
2019-04-26T16:30:37.340Z,1816.00
2019-04-26T16:31:34.286Z,1764.00
2019-04-26T16:32:34.490Z,1820.00
2019-04-26T16:33:33.497Z,1780.00
2019-04-26T16:34:32.604Z,1756.00
2019-04-26T16:35:32.633Z,1720.00
2019-04-26T16:36:36.722Z,1724.00
2019-04-26T16:37:35.167Z,1700.00
2019-04-26T16:38:33.090Z,1532.00
2019-04-26T16:39:38.740Z,1428.00
2019-04-26T16:40:33.559Z,1256.00
2019-04-26T16:41:36.035Z,1208.00
2019-04-26T16:42:33.513Z,1132.00
2019-04-26T16:43:39.640Z,1220.00
2019-04-26T16:44:33.605Z,1288.00
2019-04-26T16:45:32.860Z,1352.00
2019-04-26T16:46:33.323Z,1336.00
2019-04-26T16:47:35.374Z,1444.00
2019-04-26T16:48:33.441Z,1320.00
2019-04-26T16:49:35.142Z,1244.00
2019-04-26T16:50:37.189Z,1220.00
2019-04-26T16:51:34.171Z,1228.00
2019-04-26T16:52:33.676Z,1152.00
2019-04-26T16:53:46.279Z,1152.00
2019-04-26T16:54:34.230Z,1100.00
2019-04-26T16:55:37.953Z,1184.00
2019-04-26T16:56:36.016Z,1092.00
2019-04-26T16:57:33.911Z,1068.00
2019-04-26T16:58:38.272Z,1016.00
2019-04-26T16:59:33.320Z,976.00
2019-04-26T17:00:50.065Z,952.00
2019-04-26T17:01:33.536Z,924.00
2019-04-26T17:02:36.354Z,928.00
2019-04-26T17:03:32.778Z,872.00
2019-04-26T17:04:36.075Z,856.00
2019-04-26T17:05:47.713Z,840.00
2019-04-26T17:06:33.258Z,824.00
2019-04-26T17:07:32.235Z,812.00
2019-04-26T17:08:32.217Z,824.00
2019-04-26T17:09:54.396Z,856.00
2019-04-26T17:10:33.224Z,932.00
2019-04-26T17:11:36.194Z,1020.00
2019-04-26T17:12:33.206Z,1016.00
2019-04-26T17:13:34.744Z,1012.00
2019-04-26T17:14:34.159Z,1036.00
2019-04-26T17:15:32.335Z,1048.00
2019-04-26T17:16:36.941Z,1108.00
2019-04-26T17:17:33.217Z,1180.00
2019-04-26T17:18:32.441Z,1208.00
2019-04-26T17:19:35.925Z,1220.00
2019-04-26T17:20:33.984Z,1220.00
2019-04-26T17:21:32.794Z,1232.00
2019-04-26T17:22:42.509Z,1144.00
2019-04-26T17:23:33.380Z,1028.00
2019-04-26T17:24:32.046Z,1000.00
2019-04-26T17:25:32.160Z,896.00
2019-04-26T17:26:33.613Z,848.00
2019-04-26T17:27:33.041Z,828.00
2019-04-26T17:28:32.569Z,856.00
2019-04-26T17:29:33.453Z,796.00
2019-04-26T17:30:34.449Z,788.00
2019-04-26T17:31:33.644Z,804.00
2019-04-26T17:32:31.965Z,752.00
2019-04-26T17:33:32.684Z,732.00
2019-04-26T17:34:33.633Z,712.00
2019-04-26T17:35:32.771Z,728.00
2019-04-26T17:36:34.334Z,744.00
2019-04-26T17:37:31.904Z,728.00
2019-04-26T17:38:35.186Z,700.00